sensor_id;sensor_type;location;lat;lon;timestamp;P1;durP1;ratioP1;P2;durP2;ratioP2
53151;SDS011;39234;53.158;6.322;2022-08-19T00:01:48;16.58;;;8.13;;
53151;SDS011;39234;53.158;6.322;2022-08-19T00:04:16;8.93;;;6.20;;
53151;SDS011;39234;53.158;6.322;2022-08-19T00:06:44;9.35;;;6.28;;
53151;SDS011;39234;53.158;6.322;2022-08-19T00:09:12;8.23;;;5.40;;
53151;SDS011;39234;53.158;6.322;2022-08-19T00:11:39;10.73;;;5.90;;
53151;SDS011;39234;53.158;6.322;2022-08-19T00:14:06;7.57;;;5.53;;
53151;SDS011;39234;53.158;6.322;2022-08-19T00:16:35;11.23;;;7.00;;
53151;SDS011;39234;53.158;6.322;2022-08-19T00:19:02;10.75;;;6.32;;
53151;SDS011;39234;53.158;6.322;2022-08-19T00:21:28;16.17;;;7.25;;
53151;SDS011;39234;53.158;6.322;2022-08-19T00:23:54;7.13;;;5.72;;
53151;SDS011;39234;53.158;6.322;2022-08-19T00:26:25;7.33;;;5.70;;
53151;SDS011;39234;53.158;6.322;2022-08-19T00:28:52;8.27;;;5.53;;
53151;SDS011;39234;53.158;6.322;2022-08-19T00:31:17;7.75;;;5.68;;
53151;SDS011;39234;53.158;6.322;2022-08-19T00:33:43;7.60;;;5.00;;
53151;SDS011;39234;53.158;6.322;2022-08-19T00:36:09;7.63;;;4.72;;
53151;SDS011;39234;53.158;6.322;2022-08-19T00:38:36;7.70;;;5.30;;
53151;SDS011;39234;53.158;6.322;2022-08-19T00:41:06;8.48;;;5.07;;
53151;SDS011;39234;53.158;6.322;2022-08-19T00:43:32;7.82;;;5.22;;
53151;SDS011;39234;53.158;6.322;2022-08-19T00:45:58;7.22;;;5.70;;
53151;SDS011;39234;53.158;6.322;2022-08-19T00:48:24;8.13;;;5.63;;
53151;SDS011;39234;53.158;6.322;2022-08-19T00:50:50;7.35;;;5.72;;
53151;SDS011;39234;53.158;6.322;2022-08-19T00:53:26;8.30;;;6.13;;
53151;SDS011;39234;53.158;6.322;2022-08-19T00:55:54;10.98;;;7.55;;
53151;SDS011;39234;53.158;6.322;2022-08-19T00:58:24;9.15;;;6.97;;
53151;SDS011;39234;53.158;6.322;2022-08-19T01:00:53;12.93;;;7.90;;
53151;SDS011;39234;53.158;6.322;2022-08-19T01:03:20;11.88;;;7.68;;
53151;SDS011;39234;53.158;6.322;2022-08-19T01:05:47;9.73;;;6.00;;
53151;SDS011;39234;53.158;6.322;2022-08-19T01:08:15;9.10;;;6.78;;
53151;SDS011;39234;53.158;6.322;2022-08-19T01:10:46;8.07;;;5.80;;
53151;SDS011;39234;53.158;6.322;2022-08-19T01:13:17;6.85;;;5.05;;
53151;SDS011;39234;53.158;6.322;2022-08-19T01:15:47;5.82;;;3.88;;
53151;SDS011;39234;53.158;6.322;2022-08-19T01:18:17;6.93;;;4.20;;
53151;SDS011;39234;53.158;6.322;2022-08-19T01:20:46;7.82;;;5.18;;
53151;SDS011;39234;53.158;6.322;2022-08-19T01:23:12;7.60;;;5.10;;
53151;SDS011;39234;53.158;6.322;2022-08-19T01:25:41;6.22;;;5.00;;
53151;SDS011;39234;53.158;6.322;2022-08-19T01:28:22;9.23;;;6.43;;
53151;SDS011;39234;53.158;6.322;2022-08-19T01:30:51;8.15;;;5.03;;
53151;SDS011;39234;53.158;6.322;2022-08-19T01:33:19;7.63;;;4.60;;
53151;SDS011;39234;53.158;6.322;2022-08-19T01:35:45;7.32;;;4.80;;
53151;SDS011;39234;53.158;6.322;2022-08-19T01:38:20;6.10;;;3.80;;
53151;SDS011;39234;53.158;6.322;2022-08-19T01:40:48;6.57;;;4.05;;
53151;SDS011;39234;53.158;6.322;2022-08-19T01:43:14;7.47;;;3.58;;
53151;SDS011;39234;53.158;6.322;2022-08-19T01:45:40;6.25;;;3.20;;
53151;SDS011;39234;53.158;6.322;2022-08-19T01:48:06;5.40;;;3.35;;
53151;SDS011;39234;53.158;6.322;2022-08-19T01:50:33;8.70;;;5.25;;
53151;SDS011;39234;53.158;6.322;2022-08-19T01:53:00;10.00;;;4.45;;
53151;SDS011;39234;53.158;6.322;2022-08-19T01:55:28;5.88;;;4.22;;
53151;SDS011;39234;53.158;6.322;2022-08-19T01:57:55;8.57;;;5.40;;
53151;SDS011;39234;53.158;6.322;2022-08-19T02:00:25;6.47;;;4.22;;
53151;SDS011;39234;53.158;6.322;2022-08-19T02:02:54;7.00;;;4.45;;
53151;SDS011;39234;53.158;6.322;2022-08-19T02:05:22;6.10;;;4.43;;
53151;SDS011;39234;53.158;6.322;2022-08-19T02:07:48;7.40;;;5.00;;
53151;SDS011;39234;53.158;6.322;2022-08-19T02:10:15;7.07;;;4.97;;
53151;SDS011;39234;53.158;6.322;2022-08-19T02:12:44;7.72;;;4.70;;
53151;SDS011;39234;53.158;6.322;2022-08-19T02:15:09;7.70;;;3.75;;
53151;SDS011;39234;53.158;6.322;2022-08-19T02:17:36;6.13;;;4.20;;
53151;SDS011;39234;53.158;6.322;2022-08-19T02:20:06;7.65;;;5.10;;
53151;SDS011;39234;53.158;6.322;2022-08-19T02:22:32;8.82;;;5.40;;
53151;SDS011;39234;53.158;6.322;2022-08-19T02:24:59;11.73;;;6.63;;
53151;SDS011;39234;53.158;6.322;2022-08-19T02:27:26;9.98;;;6.03;;
53151;SDS011;39234;53.158;6.322;2022-08-19T02:29:52;12.80;;;7.60;;
53151;SDS011;39234;53.158;6.322;2022-08-19T02:32:18;10.23;;;6.13;;
53151;SDS011;39234;53.158;6.322;2022-08-19T02:34:47;7.88;;;5.65;;
53151;SDS011;39234;53.158;6.322;2022-08-19T02:37:13;8.77;;;5.95;;
53151;SDS011;39234;53.158;6.322;2022-08-19T02:39:58;8.40;;;5.95;;
53151;SDS011;39234;53.158;6.322;2022-08-19T02:42:24;10.63;;;6.05;;
53151;SDS011;39234;53.158;6.322;2022-08-19T02:44:49;10.43;;;7.00;;
53151;SDS011;39234;53.158;6.322;2022-08-19T02:47:17;11.90;;;7.00;;
53151;SDS011;39234;53.158;6.322;2022-08-19T02:49:44;10.75;;;6.70;;
53151;SDS011;39234;53.158;6.322;2022-08-19T02:52:10;8.90;;;7.00;;
53151;SDS011;39234;53.158;6.322;2022-08-19T02:54:37;8.00;;;5.47;;
53151;SDS011;39234;53.158;6.322;2022-08-19T02:57:03;10.77;;;5.25;;
53151;SDS011;39234;53.158;6.322;2022-08-19T02:59:31;11.05;;;5.20;;
53151;SDS011;39234;53.158;6.322;2022-08-19T03:01:57;13.55;;;5.65;;
53151;SDS011;39234;53.158;6.322;2022-08-19T03:04:23;10.90;;;6.68;;
53151;SDS011;39234;53.158;6.322;2022-08-19T03:06:51;8.45;;;5.90;;
53151;SDS011;39234;53.158;6.322;2022-08-19T03:09:17;8.30;;;6.50;;
53151;SDS011;39234;53.158;6.322;2022-08-19T03:11:44;11.27;;;6.95;;
53151;SDS011;39234;53.158;6.322;2022-08-19T03:14:11;11.32;;;6.80;;
53151;SDS011;39234;53.158;6.322;2022-08-19T03:16:42;9.50;;;7.50;;
53151;SDS011;39234;53.158;6.322;2022-08-19T03:19:13;10.38;;;6.82;;
53151;SDS011;39234;53.158;6.322;2022-08-19T03:21:42;10.63;;;6.38;;
53151;SDS011;39234;53.158;6.322;2022-08-19T03:24:09;7.63;;;5.38;;
53151;SDS011;39234;53.158;6.322;2022-08-19T03:26:42;7.22;;;4.93;;
53151;SDS011;39234;53.158;6.322;2022-08-19T03:29:10;7.93;;;4.18;;
53151;SDS011;39234;53.158;6.322;2022-08-19T03:31:37;7.88;;;4.30;;
53151;SDS011;39234;53.158;6.322;2022-08-19T03:34:04;10.15;;;5.32;;
53151;SDS011;39234;53.158;6.322;2022-08-19T03:36:30;11.30;;;4.35;;
53151;SDS011;39234;53.158;6.322;2022-08-19T03:38:57;10.63;;;4.93;;
53151;SDS011;39234;53.158;6.322;2022-08-19T03:41:29;89.28;;;6.10;;
53151;SDS011;39234;53.158;6.322;2022-08-19T03:43:56;12.73;;;5.13;;
53151;SDS011;39234;53.158;6.322;2022-08-19T03:46:26;8.38;;;4.72;;
53151;SDS011;39234;53.158;6.322;2022-08-19T03:48:53;7.95;;;4.32;;
53151;SDS011;39234;53.158;6.322;2022-08-19T03:51:22;7.93;;;4.18;;
53151;SDS011;39234;53.158;6.322;2022-08-19T03:53:50;12.43;;;5.95;;
53151;SDS011;39234;53.158;6.322;2022-08-19T03:56:17;9.73;;;5.55;;
53151;SDS011;39234;53.158;6.322;2022-08-19T03:58:43;11.02;;;4.97;;
53151;SDS011;39234;53.158;6.322;2022-08-19T04:01:10;9.38;;;5.40;;
53151;SDS011;39234;53.158;6.322;2022-08-19T04:03:38;47.35;;;6.60;;
53151;SDS011;39234;53.158;6.322;2022-08-19T04:08:57;25.58;;;7.53;;
53151;SDS011;39234;53.158;6.322;2022-08-19T04:11:30;11.23;;;6.25;;
53151;SDS011;39234;53.158;6.322;2022-08-19T04:14:00;11.07;;;6.97;;
53151;SDS011;39234;53.158;6.322;2022-08-19T04:16:26;11.18;;;6.43;;
53151;SDS011;39234;53.158;6.322;2022-08-19T04:18:56;12.80;;;7.47;;
53151;SDS011;39234;53.158;6.322;2022-08-19T04:21:25;11.13;;;6.57;;
53151;SDS011;39234;53.158;6.322;2022-08-19T04:23:53;8.85;;;5.95;;
53151;SDS011;39234;53.158;6.322;2022-08-19T04:26:21;9.45;;;5.97;;
53151;SDS011;39234;53.158;6.322;2022-08-19T04:28:49;10.65;;;6.22;;
53151;SDS011;39234;53.158;6.322;2022-08-19T04:31:20;10.48;;;7.47;;
53151;SDS011;39234;53.158;6.322;2022-08-19T04:33:50;10.77;;;6.93;;
53151;SDS011;39234;53.158;6.322;2022-08-19T04:36:24;13.75;;;6.35;;
53151;SDS011;39234;53.158;6.322;2022-08-19T04:38:55;13.43;;;6.57;;
53151;SDS011;39234;53.158;6.322;2022-08-19T04:41:23;11.43;;;6.28;;
53151;SDS011;39234;53.158;6.322;2022-08-19T04:44:08;9.82;;;6.70;;
53151;SDS011;39234;53.158;6.322;2022-08-19T04:46:34;7.80;;;5.03;;
53151;SDS011;39234;53.158;6.322;2022-08-19T04:49:03;17.45;;;6.30;;
53151;SDS011;39234;53.158;6.322;2022-08-19T04:51:30;26.10;;;7.28;;
53151;SDS011;39234;53.158;6.322;2022-08-19T04:53:58;9.85;;;6.57;;
53151;SDS011;39234;53.158;6.322;2022-08-19T04:56:25;13.05;;;7.75;;
53151;SDS011;39234;53.158;6.322;2022-08-19T04:58:52;11.25;;;7.30;;
53151;SDS011;39234;53.158;6.322;2022-08-19T05:01:21;12.60;;;8.40;;
53151;SDS011;39234;53.158;6.322;2022-08-19T05:03:49;12.40;;;8.32;;
53151;SDS011;39234;53.158;6.322;2022-08-19T05:06:15;13.35;;;8.13;;
53151;SDS011;39234;53.158;6.322;2022-08-19T05:08:43;9.88;;;7.45;;
53151;SDS011;39234;53.158;6.322;2022-08-19T05:11:10;10.75;;;7.05;;
53151;SDS011;39234;53.158;6.322;2022-08-19T05:13:38;15.95;;;7.07;;
53151;SDS011;39234;53.158;6.322;2022-08-19T05:16:08;10.20;;;7.47;;
53151;SDS011;39234;53.158;6.322;2022-08-19T05:18:35;18.42;;;9.15;;
53151;SDS011;39234;53.158;6.322;2022-08-19T05:21:19;11.82;;;6.25;;
53151;SDS011;39234;53.158;6.322;2022-08-19T05:24:05;20.77;;;12.18;;
53151;SDS011;39234;53.158;6.322;2022-08-19T05:26:35;18.83;;;11.60;;
53151;SDS011;39234;53.158;6.322;2022-08-19T05:29:03;26.63;;;14.65;;
53151;SDS011;39234;53.158;6.322;2022-08-19T05:31:29;20.35;;;13.25;;
53151;SDS011;39234;53.158;6.322;2022-08-19T05:33:56;23.52;;;12.88;;
53151;SDS011;39234;53.158;6.322;2022-08-19T05:36:23;27.92;;;15.73;;
53151;SDS011;39234;53.158;6.322;2022-08-19T05:38:53;21.17;;;14.40;;
53151;SDS011;39234;53.158;6.322;2022-08-19T05:41:20;26.67;;;15.45;;
53151;SDS011;39234;53.158;6.322;2022-08-19T05:43:54;28.25;;;17.27;;
53151;SDS011;39234;53.158;6.322;2022-08-19T05:46:21;31.58;;;18.08;;
53151;SDS011;39234;53.158;6.322;2022-08-19T05:48:47;29.35;;;17.45;;
53151;SDS011;39234;53.158;6.322;2022-08-19T05:51:13;26.50;;;17.70;;
53151;SDS011;39234;53.158;6.322;2022-08-19T05:53:39;26.83;;;17.13;;
53151;SDS011;39234;53.158;6.322;2022-08-19T05:56:05;23.75;;;16.35;;
53151;SDS011;39234;53.158;6.322;2022-08-19T05:58:36;22.88;;;13.85;;
53151;SDS011;39234;53.158;6.322;2022-08-19T06:01:03;25.83;;;16.42;;
53151;SDS011;39234;53.158;6.322;2022-08-19T06:06:02;24.55;;;15.88;;
53151;SDS011;39234;53.158;6.322;2022-08-19T06:08:29;16.20;;;13.23;;
53151;SDS011;39234;53.158;6.322;2022-08-19T06:10:58;16.05;;;12.95;;
53151;SDS011;39234;53.158;6.322;2022-08-19T06:13:39;19.20;;;12.77;;
53151;SDS011;39234;53.158;6.322;2022-08-19T06:16:07;13.63;;;11.30;;
53151;SDS011;39234;53.158;6.322;2022-08-19T06:18:33;14.73;;;11.50;;
53151;SDS011;39234;53.158;6.322;2022-08-19T06:20:59;13.68;;;11.02;;
53151;SDS011;39234;53.158;6.322;2022-08-19T06:23:29;11.02;;;8.98;;
53151;SDS011;39234;53.158;6.322;2022-08-19T06:25:55;14.32;;;11.30;;
53151;SDS011;39234;53.158;6.322;2022-08-19T06:28:21;15.13;;;10.23;;
53151;SDS011;39234;53.158;6.322;2022-08-19T06:30:49;12.40;;;10.57;;
53151;SDS011;39234;53.158;6.322;2022-08-19T06:33:16;13.05;;;10.45;;
53151;SDS011;39234;53.158;6.322;2022-08-19T06:35:41;13.38;;;10.00;;
53151;SDS011;39234;53.158;6.322;2022-08-19T06:38:11;15.13;;;11.20;;
53151;SDS011;39234;53.158;6.322;2022-08-19T06:40:37;17.77;;;11.63;;
53151;SDS011;39234;53.158;6.322;2022-08-19T06:43:03;11.00;;;7.80;;
53151;SDS011;39234;53.158;6.322;2022-08-19T06:45:30;15.30;;;11.15;;
53151;SDS011;39234;53.158;6.322;2022-08-19T06:47:56;13.90;;;10.73;;
53151;SDS011;39234;53.158;6.322;2022-08-19T06:50:25;14.20;;;11.40;;
53151;SDS011;39234;53.158;6.322;2022-08-19T06:52:50;14.85;;;9.35;;
53151;SDS011;39234;53.158;6.322;2022-08-19T06:55:16;11.55;;;9.02;;
53151;SDS011;39234;53.158;6.322;2022-08-19T06:57:42;14.35;;;9.70;;
53151;SDS011;39234;53.158;6.322;2022-08-19T07:00:10;11.40;;;9.55;;
53151;SDS011;39234;53.158;6.322;2022-08-19T07:02:42;10.98;;;8.52;;
53151;SDS011;39234;53.158;6.322;2022-08-19T07:05:08;11.13;;;8.75;;
53151;SDS011;39234;53.158;6.322;2022-08-19T07:07:35;31.88;;;14.10;;
53151;SDS011;39234;53.158;6.322;2022-08-19T07:10:01;11.90;;;6.93;;
53151;SDS011;39234;53.158;6.322;2022-08-19T07:12:28;14.60;;;8.27;;
53151;SDS011;39234;53.158;6.322;2022-08-19T07:14:58;17.63;;;9.33;;
53151;SDS011;39234;53.158;6.322;2022-08-19T07:17:26;13.20;;;7.65;;
53151;SDS011;39234;53.158;6.322;2022-08-19T07:19:52;10.23;;;6.85;;
53151;SDS011;39234;53.158;6.322;2022-08-19T07:22:17;11.55;;;7.75;;
53151;SDS011;39234;53.158;6.322;2022-08-19T07:24:50;9.57;;;7.47;;
53151;SDS011;39234;53.158;6.322;2022-08-19T07:27:16;16.45;;;8.38;;
53151;SDS011;39234;53.158;6.322;2022-08-19T07:29:41;13.65;;;6.65;;
53151;SDS011;39234;53.158;6.322;2022-08-19T07:32:10;8.05;;;6.57;;
53151;SDS011;39234;53.158;6.322;2022-08-19T07:34:36;10.35;;;7.00;;
53151;SDS011;39234;53.158;6.322;2022-08-19T07:37:03;12.88;;;6.50;;
53151;SDS011;39234;53.158;6.322;2022-08-19T07:39:32;10.18;;;7.07;;
53151;SDS011;39234;53.158;6.322;2022-08-19T07:42:01;10.93;;;7.78;;
53151;SDS011;39234;53.158;6.322;2022-08-19T07:44:29;9.82;;;6.63;;
53151;SDS011;39234;53.158;6.322;2022-08-19T07:46:58;8.52;;;6.82;;
53151;SDS011;39234;53.158;6.322;2022-08-19T07:49:25;8.50;;;7.03;;
53151;SDS011;39234;53.158;6.322;2022-08-19T07:51:53;8.68;;;5.90;;
53151;SDS011;39234;53.158;6.322;2022-08-19T07:54:21;9.43;;;5.75;;
53151;SDS011;39234;53.158;6.322;2022-08-19T07:56:49;9.75;;;6.15;;
53151;SDS011;39234;53.158;6.322;2022-08-19T07:59:16;9.95;;;7.10;;
53151;SDS011;39234;53.158;6.322;2022-08-19T08:01:43;9.13;;;7.43;;
53151;SDS011;39234;53.158;6.322;2022-08-19T08:04:09;9.02;;;7.38;;
53151;SDS011;39234;53.158;6.322;2022-08-19T08:06:54;9.75;;;7.50;;
53151;SDS011;39234;53.158;6.322;2022-08-19T08:09:49;9.57;;;7.22;;
53151;SDS011;39234;53.158;6.322;2022-08-19T08:12:20;8.10;;;6.15;;
53151;SDS011;39234;53.158;6.322;2022-08-19T08:14:51;12.05;;;8.32;;
53151;SDS011;39234;53.158;6.322;2022-08-19T08:17:20;10.38;;;7.05;;
53151;SDS011;39234;53.158;6.322;2022-08-19T08:19:48;10.35;;;8.70;;
53151;SDS011;39234;53.158;6.322;2022-08-19T08:22:16;11.05;;;8.45;;
53151;SDS011;39234;53.158;6.322;2022-08-19T08:25:13;13.05;;;9.15;;
53151;SDS011;39234;53.158;6.322;2022-08-19T08:27:42;11.95;;;9.52;;
53151;SDS011;39234;53.158;6.322;2022-08-19T08:30:10;11.60;;;8.50;;
53151;SDS011;39234;53.158;6.322;2022-08-19T08:32:39;9.07;;;7.15;;
53151;SDS011;39234;53.158;6.322;2022-08-19T08:35:08;10.63;;;9.52;;
53151;SDS011;39234;53.158;6.322;2022-08-19T08:37:36;12.48;;;10.32;;
53151;SDS011;39234;53.158;6.322;2022-08-19T08:40:06;12.10;;;10.10;;
53151;SDS011;39234;53.158;6.322;2022-08-19T08:42:46;12.30;;;10.80;;
53151;SDS011;39234;53.158;6.322;2022-08-19T08:45:17;10.35;;;8.63;;
53151;SDS011;39234;53.158;6.322;2022-08-19T08:47:47;13.77;;;9.50;;
53151;SDS011;39234;53.158;6.322;2022-08-19T08:52:53;14.77;;;11.65;;
53151;SDS011;39234;53.158;6.322;2022-08-19T08:55:23;12.35;;;10.65;;
53151;SDS011;39234;53.158;6.322;2022-08-19T08:57:53;14.73;;;12.05;;
53151;SDS011;39234;53.158;6.322;2022-08-19T09:03:06;15.95;;;10.90;;
53151;SDS011;39234;53.158;6.322;2022-08-19T09:05:50;17.52;;;11.82;;
53151;SDS011;39234;53.158;6.322;2022-08-19T09:11:03;19.15;;;11.90;;
53151;SDS011;39234;53.158;6.322;2022-08-19T09:13:41;13.80;;;12.23;;
53151;SDS011;39234;53.158;6.322;2022-08-19T09:16:23;10.77;;;8.30;;
53151;SDS011;39234;53.158;6.322;2022-08-19T09:18:53;12.05;;;10.10;;
53151;SDS011;39234;53.158;6.322;2022-08-19T09:21:22;15.27;;;10.98;;
53151;SDS011;39234;53.158;6.322;2022-08-19T09:23:51;16.70;;;10.75;;
53151;SDS011;39234;53.158;6.322;2022-08-19T09:26:19;13.32;;;9.57;;
53151;SDS011;39234;53.158;6.322;2022-08-19T09:28:47;15.57;;;11.27;;
53151;SDS011;39234;53.158;6.322;2022-08-19T09:31:19;13.70;;;11.52;;
53151;SDS011;39234;53.158;6.322;2022-08-19T09:33:50;13.57;;;10.60;;
53151;SDS011;39234;53.158;6.322;2022-08-19T09:36:17;13.57;;;11.82;;
53151;SDS011;39234;53.158;6.322;2022-08-19T09:38:44;13.57;;;11.85;;
53151;SDS011;39234;53.158;6.322;2022-08-19T09:41:15;16.13;;;12.73;;
53151;SDS011;39234;53.158;6.322;2022-08-19T09:43:43;14.18;;;11.70;;
53151;SDS011;39234;53.158;6.322;2022-08-19T09:46:10;13.63;;;11.10;;
53151;SDS011;39234;53.158;6.322;2022-08-19T09:48:37;14.70;;;11.13;;
53151;SDS011;39234;53.158;6.322;2022-08-19T09:51:10;13.93;;;12.07;;
53151;SDS011;39234;53.158;6.322;2022-08-19T09:53:40;13.93;;;12.50;;
53151;SDS011;39234;53.158;6.322;2022-08-19T09:56:09;13.77;;;12.32;;
53151;SDS011;39234;53.158;6.322;2022-08-19T09:58:36;14.55;;;11.90;;
53151;SDS011;39234;53.158;6.322;2022-08-19T10:01:02;13.98;;;12.55;;
53151;SDS011;39234;53.158;6.322;2022-08-19T10:03:31;14.05;;;12.52;;
53151;SDS011;39234;53.158;6.322;2022-08-19T10:05:59;15.05;;;13.20;;
53151;SDS011;39234;53.158;6.322;2022-08-19T10:08:28;17.65;;;14.77;;
53151;SDS011;39234;53.158;6.322;2022-08-19T10:10:56;15.63;;;13.27;;
53151;SDS011;39234;53.158;6.322;2022-08-19T10:13:25;13.77;;;11.85;;
53151;SDS011;39234;53.158;6.322;2022-08-19T10:15:53;15.30;;;13.55;;
53151;SDS011;39234;53.158;6.322;2022-08-19T10:18:21;15.30;;;12.60;;
53151;SDS011;39234;53.158;6.322;2022-08-19T10:20:49;17.50;;;12.45;;
53151;SDS011;39234;53.158;6.322;2022-08-19T10:23:16;17.15;;;15.35;;
53151;SDS011;39234;53.158;6.322;2022-08-19T10:25:45;14.43;;;12.88;;
53151;SDS011;39234;53.158;6.322;2022-08-19T10:28:10;15.80;;;13.98;;
53151;SDS011;39234;53.158;6.322;2022-08-19T10:30:37;17.38;;;14.45;;
53151;SDS011;39234;53.158;6.322;2022-08-19T10:33:05;15.85;;;14.27;;
53151;SDS011;39234;53.158;6.322;2022-08-19T10:35:31;15.90;;;14.20;;
53151;SDS011;39234;53.158;6.322;2022-08-19T10:45:57;18.15;;;14.38;;
53151;SDS011;39234;53.158;6.322;2022-08-19T10:48:27;16.92;;;15.05;;
53151;SDS011;39234;53.158;6.322;2022-08-19T10:50:53;15.82;;;14.00;;
53151;SDS011;39234;53.158;6.322;2022-08-19T11:17:25;12.10;;;10.77;;
53151;SDS011;39234;53.158;6.322;2022-08-19T11:19:51;14.43;;;11.00;;
53151;SDS011;39234;53.158;6.322;2022-08-19T11:22:20;12.63;;;11.13;;
53151;SDS011;39234;53.158;6.322;2022-08-19T11:24:45;12.68;;;10.68;;
53151;SDS011;39234;53.158;6.322;2022-08-19T11:27:17;12.65;;;10.20;;
53151;SDS011;39234;53.158;6.322;2022-08-19T11:29:49;15.77;;;11.20;;
53151;SDS011;39234;53.158;6.322;2022-08-19T11:38:54;11.65;;;8.80;;
53151;SDS011;39234;53.158;6.322;2022-08-19T11:41:27;13.43;;;9.90;;
53151;SDS011;39234;53.158;6.322;2022-08-19T11:44:52;15.32;;;11.85;;
53151;SDS011;39234;53.158;6.322;2022-08-19T11:47:41;15.27;;;11.63;;
53151;SDS011;39234;53.158;6.322;2022-08-19T11:50:33;11.10;;;9.05;;
53151;SDS011;39234;53.158;6.322;2022-08-19T11:53:11;12.63;;;8.90;;
53151;SDS011;39234;53.158;6.322;2022-08-19T11:55:40;12.18;;;9.27;;
53151;SDS011;39234;53.158;6.322;2022-08-19T11:58:17;12.93;;;8.48;;
53151;SDS011;39234;53.158;6.322;2022-08-19T12:00:43;11.68;;;9.50;;
53151;SDS011;39234;53.158;6.322;2022-08-19T12:03:10;12.75;;;9.40;;
53151;SDS011;39234;53.158;6.322;2022-08-19T12:05:38;10.93;;;9.00;;
53151;SDS011;39234;53.158;6.322;2022-08-19T12:08:04;12.43;;;9.27;;
53151;SDS011;39234;53.158;6.322;2022-08-19T12:10:33;13.90;;;9.88;;
53151;SDS011;39234;53.158;6.322;2022-08-19T12:12:59;10.50;;;8.88;;
53151;SDS011;39234;53.158;6.322;2022-08-19T12:15:26;16.73;;;9.57;;
53151;SDS011;39234;53.158;6.322;2022-08-19T12:17:56;14.80;;;9.68;;
53151;SDS011;39234;53.158;6.322;2022-08-19T12:20:22;18.50;;;10.45;;
53151;SDS011;39234;53.158;6.322;2022-08-19T12:22:49;79.65;;;19.17;;
53151;SDS011;39234;53.158;6.322;2022-08-19T12:25:16;68.05;;;16.45;;
53151;SDS011;39234;53.158;6.322;2022-08-19T12:27:42;187.25;;;29.60;;
53151;SDS011;39234;53.158;6.322;2022-08-19T12:30:11;58.63;;;14.52;;
53151;SDS011;39234;53.158;6.322;2022-08-19T12:32:42;33.92;;;14.63;;
53151;SDS011;39234;53.158;6.322;2022-08-19T12:35:10;73.13;;;17.25;;
53151;SDS011;39234;53.158;6.322;2022-08-19T12:37:37;18.48;;;14.95;;
53151;SDS011;39234;53.158;6.322;2022-08-19T12:40:04;24.08;;;15.35;;
53151;SDS011;39234;53.158;6.322;2022-08-19T12:42:30;28.90;;;15.13;;
53151;SDS011;39234;53.158;6.322;2022-08-19T12:44:55;21.08;;;14.68;;
53151;SDS011;39234;53.158;6.322;2022-08-19T12:47:24;23.45;;;14.98;;
53151;SDS011;39234;53.158;6.322;2022-08-19T12:49:51;20.20;;;15.75;;
53151;SDS011;39234;53.158;6.322;2022-08-19T12:52:17;27.23;;;16.75;;
53151;SDS011;39234;53.158;6.322;2022-08-19T12:54:46;21.23;;;15.55;;
53151;SDS011;39234;53.158;6.322;2022-08-19T12:57:12;22.48;;;10.18;;
53151;SDS011;39234;53.158;6.322;2022-08-19T12:59:38;14.25;;;9.55;;
53151;SDS011;39234;53.158;6.322;2022-08-19T13:02:06;14.52;;;9.63;;
53151;SDS011;39234;53.158;6.322;2022-08-19T13:15:41;17.20;;;8.75;;
53151;SDS011;39234;53.158;6.322;2022-08-19T13:41:58;24.85;;;15.20;;
53151;SDS011;39234;53.158;6.322;2022-08-19T13:44:25;20.52;;;14.70;;
53151;SDS011;39234;53.158;6.322;2022-08-19T13:46:54;21.38;;;15.50;;
53151;SDS011;39234;53.158;6.322;2022-08-19T13:49:27;20.90;;;14.98;;
53151;SDS011;39234;53.158;6.322;2022-08-19T13:51:55;22.98;;;15.18;;
53151;SDS011;39234;53.158;6.322;2022-08-19T13:54:21;20.13;;;12.18;;
53151;SDS011;39234;53.158;6.322;2022-08-19T13:59:39;14.95;;;8.57;;
53151;SDS011;39234;53.158;6.322;2022-08-19T14:02:04;12.15;;;9.30;;
53151;SDS011;39234;53.158;6.322;2022-08-19T14:04:30;23.80;;;10.48;;
53151;SDS011;39234;53.158;6.322;2022-08-19T14:06:56;16.75;;;9.93;;
53151;SDS011;39234;53.158;6.322;2022-08-19T14:09:21;16.63;;;10.80;;
53151;SDS011;39234;53.158;6.322;2022-08-19T14:11:47;14.70;;;11.75;;
53151;SDS011;39234;53.158;6.322;2022-08-19T14:14:15;22.98;;;14.38;;
53151;SDS011;39234;53.158;6.322;2022-08-19T14:16:40;21.70;;;15.80;;
53151;SDS011;39234;53.158;6.322;2022-08-19T14:19:07;18.63;;;14.77;;
53151;SDS011;39234;53.158;6.322;2022-08-19T14:21:33;18.80;;;14.45;;
53151;SDS011;39234;53.158;6.322;2022-08-19T14:24:01;22.27;;;16.25;;
53151;SDS011;39234;53.158;6.322;2022-08-19T14:26:27;20.80;;;15.77;;
53151;SDS011;39234;53.158;6.322;2022-08-19T14:28:53;21.55;;;15.82;;
53151;SDS011;39234;53.158;6.322;2022-08-19T14:31:22;20.50;;;14.98;;
53151;SDS011;39234;53.158;6.322;2022-08-19T14:33:49;15.40;;;10.90;;
53151;SDS011;39234;53.158;6.322;2022-08-19T14:36:15;16.45;;;10.68;;
53151;SDS011;39234;53.158;6.322;2022-08-19T14:38:42;11.30;;;7.78;;
53151;SDS011;39234;53.158;6.322;2022-08-19T14:43:41;10.80;;;7.25;;
53151;SDS011;39234;53.158;6.322;2022-08-19T14:46:10;11.60;;;7.35;;
53151;SDS011;39234;53.158;6.322;2022-08-19T14:48:37;12.23;;;8.23;;
53151;SDS011;39234;53.158;6.322;2022-08-19T14:51:04;13.35;;;8.05;;
53151;SDS011;39234;53.158;6.322;2022-08-19T14:53:33;10.50;;;8.02;;
53151;SDS011;39234;53.158;6.322;2022-08-19T14:55:59;12.57;;;7.63;;
53151;SDS011;39234;53.158;6.322;2022-08-19T14:58:26;13.93;;;8.50;;
53151;SDS011;39234;53.158;6.322;2022-08-19T15:00:52;11.63;;;8.07;;
53151;SDS011;39234;53.158;6.322;2022-08-19T15:03:17;13.43;;;7.93;;
53151;SDS011;39234;53.158;6.322;2022-08-19T15:05:43;14.77;;;8.75;;
53151;SDS011;39234;53.158;6.322;2022-08-19T15:08:09;12.30;;;8.77;;
53151;SDS011;39234;53.158;6.322;2022-08-19T15:10:35;13.52;;;7.78;;
53151;SDS011;39234;53.158;6.322;2022-08-19T15:13:03;14.18;;;9.30;;
53151;SDS011;39234;53.158;6.322;2022-08-19T15:15:29;13.05;;;9.80;;
53151;SDS011;39234;53.158;6.322;2022-08-19T15:17:55;15.82;;;8.98;;
53151;SDS011;39234;53.158;6.322;2022-08-19T15:20:27;12.07;;;8.25;;
53151;SDS011;39234;53.158;6.322;2022-08-19T15:22:54;11.60;;;8.27;;
53151;SDS011;39234;53.158;6.322;2022-08-19T15:25:20;13.13;;;9.27;;
53151;SDS011;39234;53.158;6.322;2022-08-19T15:27:46;13.40;;;8.13;;
53151;SDS011;39234;53.158;6.322;2022-08-19T15:30:18;11.38;;;8.13;;
53151;SDS011;39234;53.158;6.322;2022-08-19T15:32:46;24.65;;;8.40;;
53151;SDS011;39234;53.158;6.322;2022-08-19T15:35:12;16.00;;;9.63;;
53151;SDS011;39234;53.158;6.322;2022-08-19T15:37:38;16.50;;;9.43;;
53151;SDS011;39234;53.158;6.322;2022-08-19T15:40:04;12.95;;;8.30;;
53151;SDS011;39234;53.158;6.322;2022-08-19T15:42:37;12.30;;;8.32;;
53151;SDS011;39234;53.158;6.322;2022-08-19T15:45:07;12.10;;;8.38;;
53151;SDS011;39234;53.158;6.322;2022-08-19T15:47:34;12.20;;;9.13;;
53151;SDS011;39234;53.158;6.322;2022-08-19T15:50:05;13.32;;;9.07;;
53151;SDS011;39234;53.158;6.322;2022-08-19T15:52:35;11.20;;;8.43;;
53151;SDS011;39234;53.158;6.322;2022-08-19T15:55:00;12.93;;;9.63;;
53151;SDS011;39234;53.158;6.322;2022-08-19T15:57:28;14.68;;;9.10;;
53151;SDS011;39234;53.158;6.322;2022-08-19T15:59:54;14.43;;;9.45;;
53151;SDS011;39234;53.158;6.322;2022-08-19T16:02:38;15.13;;;8.43;;
53151;SDS011;39234;53.158;6.322;2022-08-19T16:05:25;13.98;;;10.10;;
53151;SDS011;39234;53.158;6.322;2022-08-19T16:08:09;13.50;;;9.27;;
53151;SDS011;39234;53.158;6.322;2022-08-19T16:10:36;16.13;;;10.05;;
53151;SDS011;39234;53.158;6.322;2022-08-19T16:13:03;16.67;;;9.45;;
53151;SDS011;39234;53.158;6.322;2022-08-19T16:15:30;16.42;;;9.35;;